Time;durP1;ratioP1;P1;durP2;ratioP2;P2;SDS_P1;SDS_P2;PMS_P1;PMS_P2;Temp;Humidity;BMP_temperature;BMP_pressure;BME280_temperature;BME280_humidity;BME280_pressure;Samples;Min_cycle;Max_cycle;Signal;HPM_P1;HPM_P2
2021/07/13 00:00:22;;;;;;;7.43;4.60;;;23.60;73.10;;;;;;5020908;28;20033;-66
2021/07/13 00:02:48;;;;;;;5.97;4.70;;;23.50;73.70;;;;;;5028539;28;20052;-67
2021/07/13 00:05:19;;;;;;;5.78;4.95;;;23.50;73.80;;;;;;5031418;28;20049;-66
2021/07/13 00:07:47;;;;;;;6.50;5.25;;;23.50;74.40;;;;;;5028288;28;20018;-67
2021/07/13 00:10:15;;;;;;;5.75;5.03;;;23.40;74.80;;;;;;5031223;28;20156;-67
2021/07/13 00:12:41;;;;;;;5.32;4.82;;;23.30;75.40;;;;;;5031276;28;20026;-65
2021/07/13 00:15:21;;;;;;;7.32;5.15;;;23.30;75.40;;;;;;5031396;28;20409;-67
2021/07/13 00:17:48;;;;;;;7.30;5.10;;;23.30;75.70;;;;;;5031337;28;20108;-65
2021/07/13 00:20:14;;;;;;;8.23;5.05;;;23.40;75.10;;;;;;5033881;28;20041;-67
2021/07/13 00:22:40;;;;;;;11.93;5.40;;;23.40;75.20;;;;;;5035085;28;20034;-65
2021/07/13 00:25:06;;;;;;;6.95;4.45;;;23.50;74.50;;;;;;5035328;28;20029;-66
2021/07/13 00:27:32;;;;;;;5.07;4.32;;;23.50;73.50;;;;;;5035059;28;20378;-65
2021/07/13 00:29:58;;;;;;;7.15;5.20;;;23.50;72.60;;;;;;5034197;28;20042;-66
2021/07/13 00:32:24;;;;;;;6.32;4.78;;;23.50;72.40;;;;;;5035492;28;20037;-66
2021/07/13 00:34:50;;;;;;;7.72;5.15;;;23.50;72.00;;;;;;5035210;28;20500;-66
2021/07/13 00:37:15;;;;;;;6.78;5.32;;;23.50;71.90;;;;;;5034131;28;20033;-66
2021/07/13 00:39:41;;;;;;;6.15;5.50;;;23.60;72.00;;;;;;5035120;28;20033;-66
2021/07/13 00:42:14;;;;;;;6.63;5.85;;;23.60;71.80;;;;;;5035167;28;20133;-66
2021/07/13 00:44:44;;;;;;;6.90;5.35;;;23.60;71.90;;;;;;5035096;28;20029;-66
2021/07/13 00:47:10;;;;;;;5.22;4.72;;;23.50;72.10;;;;;;5035037;28;20393;-67
2021/07/13 00:49:37;;;;;;;6.68;5.55;;;23.50;72.10;;;;;;5033647;28;20049;-66
2021/07/13 00:52:04;;;;;;;8.25;5.57;;;23.50;72.60;;;;;;5035076;28;20112;-66
2021/07/13 00:54:30;;;;;;;20.35;6.95;;;23.50;72.70;;;;;;5034684;28;20033;-66
2021/07/13 00:56:56;;;;;;;8.75;6.60;;;23.50;73.00;;;;;;5034611;28;20036;-66
2021/07/13 00:59:22;;;;;;;7.45;5.90;;;23.40;73.20;;;;;;5034410;28;20112;-66
2021/07/13 01:01:49;;;;;;;7.35;5.78;;;23.40;73.70;;;;;;5034964;28;20025;-67
2021/07/13 01:04:17;;;;;;;6.28;5.68;;;23.40;73.50;;;;;;5034853;28;20079;-66
2021/07/13 01:06:58;;;;;;;7.93;5.75;;;23.40;73.90;;;;;;5034677;28;20063;-67
2021/07/13 01:09:59;;;;;;;7.82;7.03;;;23.40;74.10;;;;;;5034519;28;20116;-65
2021/07/13 01:12:44;;;;;;;9.93;7.15;;;23.30;74.60;;;;;;5032875;28;20517;-66
2021/07/13 01:15:10;;;;;;;11.52;7.63;;;23.30;74.80;;;;;;5034266;28;20457;-66
2021/07/13 01:18:00;;;;;;;11.48;10.18;;;23.30;75.20;;;;;;5034583;28;20029;-65
2021/07/13 01:20:44;;;;;;;13.32;9.32;;;23.30;76.00;;;;;;5034641;28;20036;-67
2021/07/13 01:23:39;;;;;;;10.60;9.50;;;23.30;76.00;;;;;;5034500;28;20025;-67
2021/07/13 01:26:21;;;;;;;13.80;10.05;;;23.30;76.80;;;;;;5034570;28;20101;-66
2021/07/13 01:28:51;;;;;;;11.02;9.68;;;23.30;76.70;;;;;;5066909;28;20121;-66
2021/07/13 01:31:18;;;;;;;13.27;11.88;;;23.20;79.70;;;;;;5033616;28;20119;-66
2021/07/13 01:34:01;;;;;;;12.65;11.50;;;23.10;81.10;;;;;;5034895;28;20571;-66
2021/07/13 01:36:30;;;;;;;13.38;11.98;;;23.10;82.10;;;;;;5034722;28;20079;-66
2021/07/13 01:38:59;;;;;;;14.27;11.98;;;23.00;83.30;;;;;;5034699;28;20032;-66
2021/07/13 01:41:27;;;;;;;13.75;12.32;;;23.00;83.60;;;;;;5035091;28;20052;-66
2021/07/13 01:43:54;;;;;;;16.83;15.13;;;22.90;84.00;;;;;;5034872;28;20091;-66
2021/07/13 01:46:22;;;;;;;18.67;16.80;;;22.90;85.00;;;;;;5034438;28;20386;-66
2021/07/13 01:48:50;;;;;;;20.38;18.33;;;22.90;85.20;;;;;;5034464;28;20083;-66
2021/07/13 01:51:17;;;;;;;21.83;19.70;;;22.80;86.00;;;;;;5034364;28;20147;-66
2021/07/13 01:53:44;;;;;;;22.85;20.80;;;22.80;86.10;;;;;;5034388;28;20521;-66
2021/07/13 01:56:11;;;;;;;22.80;20.77;;;22.80;86.70;;;;;;5034271;28;20045;-67
2021/07/13 01:58:38;;;;;;;23.25;20.92;;;22.80;87.00;;;;;;5034085;28;20464;-66
2021/07/13 02:01:19;;;;;;;24.05;21.65;;;22.80;87.00;;;;;;5034331;28;20108;-66
2021/07/13 02:03:48;;;;;;;21.88;19.73;;;22.80;86.80;;;;;;5065820;28;20055;-66
2021/07/13 02:06:16;;;;;;;22.90;20.73;;;22.80;86.80;;;;;;5034497;28;20025;-66
2021/07/13 02:08:43;;;;;;;23.08;20.77;;;22.70;86.80;;;;;;5065907;28;20481;-66
2021/07/13 02:11:10;;;;;;;22.33;20.23;;;22.70;86.70;;;;;;5034252;28;20025;-66
2021/07/13 02:13:36;;;;;;;21.30;19.27;;;22.70;86.00;;;;;;5033833;28;20032;-66
2021/07/13 02:16:04;;;;;;;20.83;18.65;;;22.70;85.90;;;;;;5034118;28;20030;-67
2021/07/13 02:18:30;;;;;;;20.00;18.00;;;22.70;85.30;;;;;;5033984;28;20033;-66
2021/07/13 02:20:58;;;;;;;19.95;17.45;;;22.70;85.00;;;;;;5034113;28;20116;-66
2021/07/13 02:23:23;;;;;;;18.70;15.80;;;22.70;84.70;;;;;;5033730;28;20022;-66
2021/07/13 02:25:54;;;;;;;14.18;12.77;;;22.70;83.70;;;;;;5033966;28;20026;-66
2021/07/13 02:28:32;;;;;;;14.05;12.70;;;22.70;83.20;;;;;;5033431;28;20041;-66
2021/07/13 02:31:11;;;;;;;13.20;11.50;;;22.70;83.00;;;;;;5033764;28;20489;-66
2021/07/13 02:33:51;;;;;;;15.43;12.63;;;22.70;82.90;;;;;;5033678;28;20021;-66
2021/07/13 02:36:24;;;;;;;13.07;11.85;;;22.70;82.80;;;;;;5033828;28;20029;-67
2021/07/13 02:38:50;;;;;;;13.43;11.70;;;22.70;82.30;;;;;;5033473;28;20080;-65
2021/07/13 02:41:17;;;;;;;11.95;10.85;;;22.70;81.90;;;;;;5033697;28;20033;-66
2021/07/13 02:43:45;;;;;;;12.23;10.73;;;22.70;82.10;;;;;;5033464;28;20100;-66
2021/07/13 02:46:11;;;;;;;11.77;10.68;;;22.70;81.90;;;;;;5033420;28;20049;-65
2021/07/13 02:48:37;;;;;;;12.85;11.55;;;22.70;81.90;;;;;;5033528;28;20049;-65
2021/07/13 02:51:05;;;;;;;13.35;11.65;;;22.70;82.10;;;;;;5033479;28;20021;-65
2021/07/13 02:53:33;;;;;;;11.50;10.38;;;22.70;81.80;;;;;;5033359;28;20017;-65
2021/07/13 02:56:01;;;;;;;13.00;11.70;;;22.60;81.90;;;;;;5033146;28;20433;-66
2021/07/13 02:58:28;;;;;;;13.95;11.63;;;22.60;82.30;;;;;;5033150;28;20029;-66
2021/07/13 03:00:54;;;;;;;11.98;10.88;;;22.60;82.40;;;;;;5033138;28;20029;-65
2021/07/13 03:03:22;;;;;;;12.68;11.40;;;22.60;82.40;;;;;;5033205;28;20025;-65
2021/07/13 03:05:50;;;;;;;13.90;11.90;;;22.60;82.20;;;;;;5032879;28;20030;-66
2021/07/13 03:08:20;;;;;;;13.30;11.95;;;22.60;82.20;;;;;;5033045;28;20068;-65
2021/07/13 03:10:47;;;;;;;13.20;11.27;;;22.60;82.40;;;;;;5032989;28;20473;-65
2021/07/13 03:13:14;;;;;;;13.05;11.25;;;22.60;82.60;;;;;;5033255;28;20032;-65
2021/07/13 03:15:41;;;;;;;13.35;11.07;;;22.60;82.00;;;;;;5032635;28;20026;-65
2021/07/13 03:18:07;;;;;;;13.30;11.30;;;22.60;81.90;;;;;;5033222;28;20421;-65
2021/07/13 03:20:33;;;;;;;13.07;11.65;;;22.60;81.90;;;;;;5032903;28;20466;-65
2021/07/13 03:23:01;;;;;;;12.65;11.07;;;22.50;82.00;;;;;;5032599;28;20204;-66
2021/07/13 03:25:30;;;;;;;12.27;10.38;;;22.60;82.10;;;;;;5065022;28;20112;-65
2021/07/13 03:27:58;;;;;;;12.60;11.20;;;22.50;81.90;;;;;;5032461;28;20414;-65
2021/07/13 03:30:24;;;;;;;11.68;10.55;;;22.50;82.20;;;;;;5033101;28;20276;-65
2021/07/13 03:32:52;;;;;;;13.02;10.95;;;22.50;82.40;;;;;;5032555;28;20033;-65
2021/07/13 03:35:20;;;;;;;11.95;10.70;;;22.40;82.60;;;;;;5032598;28;20060;-65
2021/07/13 03:37:50;;;;;;;13.80;11.52;;;22.40;82.80;;;;;;5032340;28;20436;-66
2021/07/13 03:40:18;;;;;;;13.30;9.85;;;22.40;82.70;;;;;;5032672;28;20401;-65
2021/07/13 03:42:45;;;;;;;10.73;9.60;;;22.40;82.90;;;;;;5032482;28;20113;-65
2021/07/13 03:45:15;;;;;;;12.98;11.52;;;22.40;83.20;;;;;;5032555;28;20030;-65
2021/07/13 03:47:46;;;;;;;13.00;10.95;;;22.40;85.10;;;;;;5031324;28;20029;-64
2021/07/13 03:50:12;;;;;;;13.15;11.73;;;22.40;86.20;;;;;;5032726;28;20049;-64
2021/07/13 03:52:38;;;;;;;20.75;12.80;;;22.30;88.80;;;;;;5032708;28;20030;-61
2021/07/13 03:55:04;;;;;;;18.27;13.82;;;22.30;90.40;;;;;;5034835;28;20050;-61
2021/07/13 03:57:30;;;;;;;21.13;13.73;;;22.20;91.10;;;;;;5036742;28;20061;-62
2021/07/13 03:59:56;;;;;;;18.45;12.38;;;22.20;91.40;;;;;;5036473;28;20045;-62
2021/07/13 04:02:22;;;;;;;14.80;11.45;;;22.00;92.30;;;;;;5036549;28;20030;-62
2021/07/13 04:04:47;;;;;;;16.13;10.68;;;21.70;91.70;;;;;;5036329;28;20029;-61
2021/07/13 04:07:13;;;;;;;13.25;10.80;;;21.60;91.90;;;;;;5036718;28;20408;-62
2021/07/13 04:09:40;;;;;;;10.43;8.93;;;21.60;91.80;;;;;;5036229;28;20144;-61
2021/07/13 04:12:06;;;;;;;11.07;9.63;;;21.60;91.70;;;;;;5036519;28;20113;-61
2021/07/13 04:14:34;;;;;;;11.88;10.68;;;21.70;91.70;;;;;;5036115;28;20117;-61
2021/07/13 04:17:00;;;;;;;11.40;9.48;;;21.70;92.80;;;;;;5036125;28;20453;-62
2021/07/13 04:19:25;;;;;;;11.23;9.40;;;21.60;93.70;;;;;;5035857;28;20057;-61
2021/07/13 04:21:51;;;;;;;8.85;7.95;;;21.60;94.00;;;;;;5036328;28;20033;-62
2021/07/13 04:24:17;;;;;;;11.52;8.13;;;21.50;92.70;;;;;;5036140;28;20056;-62
2021/07/13 04:26:42;;;;;;;9.77;8.68;;;21.60;92.10;;;;;;5036012;28;20033;-62
2021/07/13 04:29:08;;;;;;;10.32;8.63;;;21.60;92.00;;;;;;5035467;28;20034;-63
2021/07/13 04:31:34;;;;;;;10.32;9.30;;;21.60;92.10;;;;;;5035790;28;20034;-63
2021/07/13 04:34:07;;;;;;;10.07;8.38;;;21.60;92.80;;;;;;5035841;28;20116;-62
2021/07/13 04:36:33;;;;;;;9.90;8.90;;;21.60;92.20;;;;;;5035771;28;20072;-62
2021/07/13 04:38:59;;;;;;;10.35;9.15;;;21.60;92.30;;;;;;5035964;28;20053;-63
2021/07/13 04:41:24;;;;;;;11.85;8.57;;;21.60;92.20;;;;;;5035653;28;20109;-63
2021/07/13 04:43:50;;;;;;;10.35;9.25;;;21.60;92.40;;;;;;5035763;28;20065;-63
2021/07/13 04:46:16;;;;;;;9.65;8.63;;;21.60;92.10;;;;;;5035454;28;20492;-64
2021/07/13 04:48:41;;;;;;;10.45;8.25;;;21.60;92.30;;;;;;5035988;28;20067;-63
2021/07/13 04:51:07;;;;;;;12.32;8.38;;;21.60;92.20;;;;;;5035459;28;20544;-63
2021/07/13 04:53:34;;;;;;;9.73;8.82;;;21.60;91.40;;;;;;5035882;28;20029;-63
2021/07/13 04:55:59;;;;;;;9.50;8.55;;;21.60;92.10;;;;;;5035305;28;20068;-64
2021/07/13 04:58:25;;;;;;;9.63;8.63;;;21.50;93.00;;;;;;5035123;28;20029;-64
2021/07/13 05:00:51;;;;;;;9.20;7.85;;;21.40;93.00;;;;;;5035225;28;20021;-64
2021/07/13 05:03:16;;;;;;;9.48;8.48;;;21.50;92.30;;;;;;5035468;28;20032;-64
2021/07/13 05:05:42;;;;;;;9.40;8.38;;;21.50;92.10;;;;;;5035359;28;20392;-65
2021/07/13 05:08:08;;;;;;;8.98;8.07;;;21.40;91.30;;;;;;5035175;28;20150;-65
2021/07/13 05:10:33;;;;;;;9.20;8.02;;;21.50;91.60;;;;;;5035372;28;20032;-65
2021/07/13 05:12:59;;;;;;;8.18;7.18;;;21.50;91.80;;;;;;5035165;28;20025;-65
2021/07/13 05:15:25;;;;;;;9.80;7.78;;;21.40;91.50;;;;;;5035029;28;20513;-65
2021/07/13 05:17:50;;;;;;;8.75;7.80;;;21.40;92.10;;;;;;5034980;28;20052;-65
2021/07/13 05:20:16;;;;;;;8.75;7.38;;;21.40;92.20;;;;;;5035302;28;20074;-65
2021/07/13 05:22:43;;;;;;;11.95;7.85;;;21.30;91.70;;;;;;5034805;28;20026;-65
2021/07/13 05:25:12;;;;;;;11.13;7.97;;;21.30;91.90;;;;;;5034985;28;20457;-66
2021/07/13 05:27:40;;;;;;;8.98;7.43;;;21.30;92.10;;;;;;5034527;28;20029;-65
2021/07/13 05:30:09;;;;;;;9.07;7.93;;;21.40;91.40;;;;;;5034713;28;20140;-65
2021/07/13 05:32:36;;;;;;;8.55;7.68;;;21.50;91.30;;;;;;5034626;28;20037;-65
2021/07/13 05:35:03;;;;;;;9.63;8.27;;;21.50;90.90;;;;;;5034826;28;20025;-65
2021/07/13 05:37:28;;;;;;;9.25;8.25;;;21.50;91.00;;;;;;5033326;28;20057;-65
2021/07/13 05:39:55;;;;;;;10.95;8.05;;;21.50;91.10;;;;;;5034639;28;20069;-65
2021/07/13 05:42:22;;;;;;;8.75;7.25;;;21.50;91.00;;;;;;5034606;28;20508;-67
2021/07/13 05:44:47;;;;;;;10.75;6.78;;;21.60;91.30;;;;;;5034643;28;20029;-67
2021/07/13 05:47:13;;;;;;;11.43;7.20;;;21.70;90.70;;;;;;5034727;28;20026;-67
2021/07/13 05:49:41;;;;;;;7.20;6.50;;;21.80;90.80;;;;;;5028315;28;20473;-67
2021/07/13 05:52:06;;;;;;;10.52;6.47;;;21.80;91.40;;;;;;5022486;28;20059;-66
2021/07/13 05:54:32;;;;;;;8.35;6.95;;;21.80;90.10;;;;;;5028665;28;20377;-66
2021/07/13 05:56:59;;;;;;;7.57;6.88;;;21.90;90.80;;;;;;5032960;28;20037;-66
2021/07/13 05:59:26;;;;;;;7.03;6.32;;;22.20;90.40;;;;;;5032710;28;20355;-66
2021/07/13 06:01:52;;;;;;;8.52;7.05;;;23.30;84.20;;;;;;5032955;28;20492;-65
2021/07/13 06:04:17;;;;;;;7.47;6.20;;;24.20;77.20;;;;;;5032481;28;20121;-67
2021/07/13 06:06:43;;;;;;;8.25;6.20;;;23.50;79.80;;;;;;5021332;28;20018;-64
2021/07/13 06:09:09;;;;;;;7.95;7.10;;;23.40;80.00;;;;;;5022828;28;20041;-61
2021/07/13 06:11:34;;;;;;;8.15;6.53;;;23.80;78.00;;;;;;5023858;28;20037;-65
2021/07/13 06:14:00;;;;;;;8.35;5.80;;;23.10;81.30;;;;;;5032551;28;20049;-66
2021/07/13 06:16:26;;;;;;;6.63;5.50;;;22.90;81.00;;;;;;5023364;28;20030;-69
2021/07/13 06:18:51;;;;;;;9.60;6.40;;;22.70;82.50;;;;;;5022644;28;20029;-67
2021/07/13 06:21:17;;;;;;;7.68;6.88;;;22.60;84.30;;;;;;5021813;28;20030;-68
2021/07/13 06:23:43;;;;;;;10.43;6.63;;;22.40;86.70;;;;;;5023706;28;20535;-67
2021/07/13 06:26:08;;;;;;;7.32;6.55;;;22.40;85.00;;;;;;5017025;28;20030;-66
2021/07/13 06:28:34;;;;;;;9.38;6.50;;;22.50;85.70;;;;;;5019204;28;20044;-66
2021/07/13 06:31:00;;;;;;;10.93;8.68;;;22.40;86.70;;;;;;5021565;28;20718;-64
2021/07/13 06:33:26;;;;;;;7.55;6.70;;;22.40;87.00;;;;;;5023357;28;20076;-66
2021/07/13 06:35:51;;;;;;;8.13;6.82;;;22.40;88.00;;;;;;5016294;28;20026;-65
2021/07/13 06:38:17;;;;;;;9.43;7.38;;;22.50;87.20;;;;;;5014015;28;20026;-66
2021/07/13 06:40:44;;;;;;;13.07;7.47;;;22.50;87.00;;;;;;5013520;28;20073;-66
2021/07/13 06:43:10;;;;;;;9.30;6.10;;;22.40;86.70;;;;;;5013684;28;20025;-66
2021/07/13 06:45:35;;;;;;;7.88;6.10;;;22.40;85.00;;;;;;5013632;28;20061;-66
2021/07/13 06:48:01;;;;;;;11.85;6.35;;;22.40;85.90;;;;;;5013868;28;20115;-67
2021/07/13 06:50:27;;;;;;;8.75;5.95;;;22.40;86.10;;;;;;5013623;28;20034;-65
2021/07/13 06:52:53;;;;;;;9.98;6.32;;;22.40;86.50;;;;;;5013408;28;20026;-65
2021/07/13 06:55:19;;;;;;;9.25;6.82;;;22.40;87.00;;;;;;5013636;28;20398;-66
2021/07/13 06:57:45;;;;;;;8.48;6.43;;;22.50;86.50;;;;;;5012788;28;20030;-65
2021/07/13 07:00:12;;;;;;;8.80;6.70;;;22.60;85.40;;;;;;5013523;28;20029;-66
2021/07/13 07:02:38;;;;;;;7.80;6.35;;;22.70;85.40;;;;;;5013241;28;20521;-67
2021/07/13 07:05:06;;;;;;;11.57;5.70;;;22.80;83.90;;;;;;5013499;28;20105;-71
2021/07/13 07:07:31;;;;;;;12.35;5.85;;;22.90;84.10;;;;;;5013229;28;20029;-66
2021/07/13 07:09:57;;;;;;;7.32;5.03;;;22.90;82.30;;;;;;5012438;28;20116;-76
2021/07/13 07:12:23;;;;;;;7.50;5.20;;;23.00;81.50;;;;;;5013368;28;20061;-65
2021/07/13 07:14:48;;;;;;;9.48;6.20;;;23.00;79.90;;;;;;5013288;28;20033;-69
2021/07/13 07:17:14;;;;;;;7.80;6.10;;;23.10;78.70;;;;;;5013105;28;20081;-69
2021/07/13 07:19:40;;;;;;;9.02;7.38;;;23.10;78.60;;;;;;5012968;28;20083;-69
2021/07/13 07:22:05;;;;;;;13.27;10.52;;;23.20;78.60;;;;;;5013009;28;20099;-67
2021/07/13 07:24:31;;;;;;;13.98;11.63;;;23.40;77.80;;;;;;5013036;28;20100;-72
2021/07/13 07:26:57;;;;;;;16.05;11.15;;;23.60;77.10;;;;;;5012644;28;20533;-72
2021/07/13 07:29:23;;;;;;;11.77;9.65;;;23.60;77.20;;;;;;5012053;28;20038;-67
2021/07/13 07:31:50;;;;;;;10.00;5.85;;;23.60;76.60;;;;;;5011763;28;20446;-66
2021/07/13 07:34:16;;;;;;;10.18;6.57;;;23.50;76.80;;;;;;5012940;28;20107;-66
2021/07/13 07:36:42;;;;;;;6.90;6.07;;;23.50;76.80;;;;;;5013083;28;20432;-66
2021/07/13 07:39:09;;;;;;;11.50;5.65;;;23.50;78.30;;;;;;5012525;28;20108;-66
2021/07/13 07:41:34;;;;;;;9.98;6.72;;;23.60;78.10;;;;;;5012792;28;20474;-66
2021/07/13 07:44:00;;;;;;;9.30;7.07;;;23.90;77.10;;;;;;5012995;28;20030;-64
2021/07/13 07:46:26;;;;;;;10.60;7.38;;;24.00;76.60;;;;;;5013172;28;20037;-65
2021/07/13 07:48:51;;;;;;;9.68;7.15;;;23.90;75.50;;;;;;5012718;28;20115;-65
2021/07/13 07:51:17;;;;;;;10.38;7.85;;;23.90;74.60;;;;;;5012992;28;20022;-65
2021/07/13 07:53:43;;;;;;;9.48;6.53;;;23.90;75.20;;;;;;5012747;28;20045;-65
2021/07/13 07:56:08;;;;;;;8.77;6.07;;;24.20;75.40;;;;;;5012268;28;20050;-65
2021/07/13 07:58:34;;;;;;;10.70;6.93;;;24.40;75.60;;;;;;5012239;28;20030;-66
2021/07/13 08:01:00;;;;;;;13.13;7.70;;;24.40;73.30;;;;;;5012840;28;20080;-65
2021/07/13 08:03:25;;;;;;;6.50;5.85;;;24.40;71.90;;;;;;5013385;28;20498;-66
2021/07/13 08:05:55;;;;;;;7.55;5.63;;;24.40;73.30;;;;;;5012771;28;20446;-65
2021/07/13 08:08:23;;;;;;;8.32;5.88;;;24.40;73.80;;;;;;5012844;28;20084;-65
2021/07/13 08:10:49;;;;;;;9.48;6.60;;;24.40;74.20;;;;;;5012512;28;20025;-66
2021/07/13 08:13:15;;;;;;;10.13;6.07;;;24.30;74.00;;;;;;5012837;28;20037;-66
2021/07/13 08:15:41;;;;;;;10.40;7.50;;;24.30;72.60;;;;;;5012352;28;20033;-66
2021/07/13 08:18:07;;;;;;;13.32;7.75;;;24.20;72.60;;;;;;5012786;28;20056;-66
2021/07/13 08:20:32;;;;;;;9.35;7.05;;;24.20;74.00;;;;;;5012545;28;20502;-67
2021/07/13 08:22:58;;;;;;;9.32;7.25;;;24.20;74.50;;;;;;5012609;28;20475;-66
2021/07/13 08:25:24;;;;;;;9.35;7.22;;;24.20;74.40;;;;;;5012426;28;20026;-66
2021/07/13 08:27:49;;;;;;;8.57;6.50;;;24.40;74.40;;;;;;5012674;28;20022;-66
2021/07/13 08:30:16;;;;;;;7.75;6.95;;;24.50;73.60;;;;;;5012444;28;20037;-67
2021/07/13 08:32:42;;;;;;;8.57;7.00;;;24.30;74.20;;;;;;5012733;28;20030;-66
2021/07/13 08:35:09;;;;;;;9.40;6.20;;;24.40;74.00;;;;;;5012667;28;20030;-67
2021/07/13 08:37:35;;;;;;;7.35;6.40;;;24.60;72.20;;;;;;5012558;28;20033;-67
2021/07/13 08:40:09;;;;;;;13.70;7.28;;;24.50;71.00;;;;;;5012699;28;20034;-67
2021/07/13 08:42:44;;;;;;;9.10;6.32;;;24.50;70.80;;;;;;5016019;28;20029;-66
2021/07/13 08:45:13;;;;;;;9.02;6.13;;;24.50;71.30;;;;;;5016085;28;20026;-67
2021/07/13 08:47:40;;;;;;;7.57;5.28;;;24.60;70.50;;;;;;5015779;28;20034;-66
2021/07/13 08:50:08;;;;;;;9.32;6.10;;;24.70;70.10;;;;;;5015830;28;20042;-66
2021/07/13 08:52:35;;;;;;;9.65;6.32;;;24.90;68.90;;;;;;5015534;28;20038;-66
2021/07/13 08:55:01;;;;;;;6.82;5.60;;;25.00;69.00;;;;;;5015785;28;20082;-66
2021/07/13 08:57:27;;;;;;;6.78;5.63;;;25.10;68.10;;;;;;5015476;28;20358;-68
2021/07/13 08:59:53;;;;;;;9.10;6.38;;;25.20;68.00;;;;;;5015747;28;20585;-67
2021/07/13 09:02:18;;;;;;;8.63;6.07;;;25.20;68.00;;;;;;5015483;28;20033;-67
2021/07/13 09:04:44;;;;;;;8.77;5.20;;;25.20;67.30;;;;;;5015528;28;20033;-67
2021/07/13 09:07:10;;;;;;;6.82;4.93;;;25.40;67.60;;;;;;5015384;28;20394;-67
2021/07/13 09:09:38;;;;;;;8.10;5.47;;;25.50;66.60;;;;;;5015918;28;20042;-66
2021/07/13 09:12:10;;;;;;;9.45;6.18;;;25.50;66.30;;;;;;5015676;28;20113;-67
2021/07/13 09:14:57;;;;;;;10.70;6.70;;;25.40;66.00;;;;;;5015312;28;20548;-67
2021/07/13 09:17:38;;;;;;;11.65;7.35;;;25.30;66.60;;;;;;5015448;28;20080;-67
2021/07/13 09:20:17;;;;;;;10.20;6.68;;;25.10;67.70;;;;;;5015478;28;20426;-66
2021/07/13 09:23:03;;;;;;;9.95;6.78;;;25.30;67.60;;;;;;5015417;28;20036;-66
2021/07/13 09:25:32;;;;;;;10.13;6.55;;;25.60;67.50;;;;;;5015745;28;20033;-66
2021/07/13 09:28:24;;;;;;;7.68;5.80;;;25.80;67.40;;;;;;5015179;28;20109;-66
2021/07/13 09:30:53;;;;;;;13.75;6.97;;;25.90;66.60;;;;;;5014939;28;20096;-66
2021/07/13 09:33:36;;;;;;;7.15;5.95;;;26.00;65.50;;;;;;5015034;28;20061;-65
2021/07/13 09:36:15;;;;;;;9.75;7.00;;;26.10;65.70;;;;;;5015090;28;20030;-65
2021/07/13 09:38:45;;;;;;;8.13;7.28;;;25.90;63.30;;;;;;5014959;28;20030;-65
2021/07/13 09:41:10;;;;;;;10.65;7.40;;;25.30;64.00;;;;;;5015164;28;20026;-66
2021/07/13 09:43:41;;;;;;;9.77;5.68;;;25.50;64.00;;;;;;5015056;28;20076;-66
2021/07/13 09:46:36;;;;;;;8.00;5.75;;;25.60;63.60;;;;;;5014719;28;20034;-66
2021/07/13 09:49:20;;;;;;;6.97;5.82;;;25.60;63.30;;;;;;5014853;28;20120;-65
2021/07/13 09:51:57;;;;;;;7.45;5.78;;;26.00;63.20;;;;;;5013860;28;20474;-66
2021/07/13 09:54:29;;;;;;;7.88;5.13;;;26.30;63.30;;;;;;5014391;28;20029;-65
2021/07/13 09:56:55;;;;;;;7.88;5.70;;;26.30;63.30;;;;;;5014086;28;20049;-65
2021/07/13 09:59:20;;;;;;;6.97;5.53;;;26.40;62.20;;;;;;5014108;28;20025;-65
2021/07/13 10:01:49;;;;;;;12.13;8.10;;;26.50;61.60;;;;;;5014222;28;20044;-66
2021/07/13 10:04:15;;;;;;;8.30;6.95;;;26.30;61.40;;;;;;5014112;28;20030;-65
2021/07/13 10:06:41;;;;;;;8.93;6.68;;;26.00;63.10;;;;;;5014160;28;20446;-65
2021/07/13 10:09:11;;;;;;;9.40;6.88;;;26.00;64.20;;;;;;5013967;28;20038;-65
2021/07/13 10:11:39;;;;;;;10.95;6.60;;;26.10;63.90;;;;;;5013697;28;20125;-65
2021/07/13 10:14:12;;;;;;;13.40;7.13;;;26.20;64.00;;;;;;5014020;28;20057;-65
2021/07/13 10:16:38;;;;;;;12.98;9.43;;;26.20;63.40;;;;;;5013582;28;20400;-65
2021/07/13 10:19:07;;;;;;;8.48;6.57;;;26.00;64.00;;;;;;5013896;28;20478;-65
2021/07/13 10:21:35;;;;;;;9.02;7.40;;;26.10;64.20;;;;;;5013580;28;20022;-65
2021/07/13 10:24:02;;;;;;;9.68;7.82;;;26.10;64.10;;;;;;5013631;28;20053;-65
2021/07/13 10:26:50;;;;;;;9.23;7.05;;;25.90;63.40;;;;;;5013331;28;20514;-65
2021/07/13 10:29:35;;;;;;;10.43;6.85;;;26.10;63.00;;;;;;5013427;28;20544;-65
2021/07/13 10:32:24;;;;;;;7.63;6.50;;;26.20;62.90;;;;;;5013252;28;20025;-65
2021/07/13 10:34:50;;;;;;;10.05;6.32;;;26.50;62.50;;;;;;5012551;28;20029;-67
2021/07/13 10:37:26;;;;;;;14.35;6.53;;;26.60;61.50;;;;;;5013197;28;20022;-68
2021/07/13 10:39:54;;;;;;;11.45;7.13;;;26.60;62.30;;;;;;5013402;28;20033;-68
2021/07/13 10:42:41;;;;;;;7.35;6.63;;;26.40;61.80;;;;;;5012953;28;20026;-68
2021/07/13 10:45:30;;;;;;;9.35;7.28;;;26.50;62.00;;;;;;5013213;28;20497;-68
2021/07/13 10:48:07;;;;;;;9.07;7.15;;;26.30;62.90;;;;;;5013139;28;20049;-68
2021/07/13 10:51:05;;;;;;;9.60;6.22;;;26.20;62.40;;;;;;5013061;28;20448;-67
2021/07/13 10:53:42;;;;;;;13.40;7.60;;;26.00;63.00;;;;;;5043574;28;20728;-66
2021/07/13 10:56:19;;;;;;;6.50;5.80;;;26.30;62.60;;;;;;5012782;28;20491;-67
2021/07/13 10:58:50;;;;;;;7.55;5.85;;;26.50;62.30;;;;;;5012621;28;20037;-67
2021/07/13 11:01:24;;;;;;;6.60;5.35;;;26.60;61.50;;;;;;5012890;28;20032;-67
2021/07/13 11:03:55;;;;;;;10.13;5.72;;;26.80;60.40;;;;;;5012089;28;20037;-67
2021/07/13 11:06:37;;;;;;;12.10;7.47;;;26.70;60.50;;;;;;5012859;28;20022;-66
2021/07/13 11:09:17;;;;;;;9.00;6.80;;;26.50;61.60;;;;;;5012450;28;20037;-68
2021/07/13 11:11:43;;;;;;;10.68;7.25;;;26.50;62.10;;;;;;5012560;28;20034;-68
2021/07/13 11:14:10;;;;;;;7.35;6.18;;;26.60;61.40;;;;;;5012372;28;20459;-68
2021/07/13 11:16:39;;;;;;;7.88;5.65;;;26.50;61.00;;;;;;5012558;28;20112;-68
2021/07/13 11:19:12;;;;;;;7.45;6.65;;;26.70;60.60;;;;;;5012368;28;20026;-67
2021/07/13 11:21:44;;;;;;;7.07;5.65;;;26.70;59.30;;;;;;5012573;28;20052;-67
2021/07/13 11:24:14;;;;;;;7.65;6.90;;;26.70;59.60;;;;;;5012685;28;20058;-67
2021/07/13 11:26:45;;;;;;;6.90;6.22;;;26.70;60.40;;;;;;5012217;28;20112;-67
2021/07/13 11:29:25;;;;;;;9.93;5.53;;;26.70;60.30;;;;;;5012112;28;20064;-67
2021/07/13 11:31:57;;;;;;;7.68;5.85;;;26.90;59.80;;;;;;5012568;28;20045;-66
2021/07/13 11:34:24;;;;;;;9.25;4.72;;;27.00;58.40;;;;;;5012157;28;20036;-67
2021/07/13 11:36:54;;;;;;;9.57;6.05;;;27.20;58.70;;;;;;5012734;28;20057;-66
2021/07/13 11:39:27;;;;;;;13.02;6.22;;;27.30;58.60;;;;;;5012357;28;20536;-67
2021/07/13 11:41:55;;;;;;;27.30;6.50;;;27.30;59.10;;;;;;5012754;28;20057;-68
2021/07/13 11:44:21;;;;;;;8.70;6.25;;;27.20;59.60;;;;;;5012549;28;20069;-67
2021/07/13 11:46:48;;;;;;;11.23;6.43;;;27.00;59.00;;;;;;5012384;28;20026;-66
2021/07/13 11:49:16;;;;;;;9.23;5.97;;;27.00;60.30;;;;;;5012432;28;20037;-66
2021/07/13 11:51:51;;;;;;;9.27;6.00;;;27.10;59.60;;;;;;5012193;28;20022;-62
2021/07/13 11:54:19;;;;;;;9.85;5.85;;;27.00;61.70;;;;;;5012570;28;20487;-61
2021/07/13 11:56:49;;;;;;;13.45;6.13;;;26.80;61.60;;;;;;5011728;28;20046;-63
2021/07/13 11:59:17;;;;;;;12.50;7.05;;;27.10;60.70;;;;;;5012721;28;20041;-63
2021/07/13 12:01:50;;;;;;;11.55;7.85;;;27.00;60.60;;;;;;5011054;28;20072;-69
2021/07/13 12:04:17;;;;;;;23.95;19.75;;;26.90;60.10;;;;;;5011854;28;20029;-64
2021/07/13 12:06:44;;;;;;;15.77;11.20;;;26.60;60.70;;;;;;5011934;28;20030;-63
2021/07/13 12:09:12;;;;;;;11.27;8.43;;;26.60;60.30;;;;;;5012705;28;20121;-63
2021/07/13 12:11:45;;;;;;;11.50;8.65;;;26.80;59.50;;;;;;5011814;28;20038;-64
2021/07/13 12:14:14;;;;;;;8.10;5.93;;;27.10;59.20;;;;;;5010403;28;20230;-63
2021/07/13 12:16:41;;;;;;;11.45;5.90;;;26.80;58.30;;;;;;5013119;28;20045;-63
2021/07/13 12:19:16;;;;;;;7.38;5.03;;;26.90;58.30;;;;;;5014315;28;20069;-64
2021/07/13 12:21:50;;;;;;;9.40;6.22;;;27.00;58.10;;;;;;5014284;28;20443;-64
2021/07/13 12:24:19;;;;;;;6.63;5.75;;;27.10;58.10;;;;;;5014673;28;20030;-63
2021/07/13 12:26:57;;;;;;;8.60;6.03;;;27.30;57.80;;;;;;5014221;28;20030;-63
2021/07/13 12:29:30;;;;;;;7.40;5.40;;;27.50;58.00;;;;;;5015843;28;20520;-62
2021/07/13 12:31:57;;;;;;;9.02;6.10;;;27.70;58.00;;;;;;5016117;28;20378;-63
2021/07/13 12:34:24;;;;;;;7.22;5.72;;;27.80;57.70;;;;;;5015919;28;20030;-63
2021/07/13 12:37:02;;;;;;;6.60;5.78;;;27.90;57.30;;;;;;5015850;28;20379;-62
2021/07/13 12:39:27;;;;;;;6.10;5.25;;;27.60;58.20;;;;;;5015691;28;20026;-63
2021/07/13 12:42:00;;;;;;;10.43;5.80;;;27.80;58.60;;;;;;5015602;28;20072;-63
2021/07/13 12:44:46;;;;;;;7.22;6.05;;;27.70;58.40;;;;;;5015697;28;20121;-62
2021/07/13 12:47:19;;;;;;;8.90;6.28;;;27.60;58.50;;;;;;5015687;28;20030;-63
2021/07/13 12:50:06;;;;;;;9.80;6.55;;;27.50;59.00;;;;;;5015498;28;20037;-63